createdAt,value
2022-09-29T00:00:30.285Z,9.23
2022-09-29T00:03:02.548Z,9.26
2022-09-29T00:05:34.785Z,9.19
2022-09-29T00:08:06.967Z,9.16
2022-09-29T00:10:41.483Z,9.12
2022-09-29T00:13:14.627Z,9.10
2022-09-29T00:15:59.875Z,9.10
2022-09-29T00:18:34.836Z,9.04
2022-09-29T00:21:17.403Z,9.01
2022-09-29T00:23:50.895Z,9.01
2022-09-29T00:26:24.420Z,9.00
2022-09-29T00:28:59.124Z,8.88
2022-09-29T00:31:33.331Z,8.90
2022-09-29T00:34:05.816Z,8.94
2022-09-29T00:36:38.406Z,9.00
2022-09-29T00:39:10.907Z,9.02
2022-09-29T00:41:43.082Z,9.01
2022-09-29T00:44:14.984Z,9.00
2022-09-29T00:46:56.771Z,8.95
2022-09-29T00:49:44.128Z,8.92
2022-09-29T00:52:20.100Z,8.90
2022-09-29T00:55:26.218Z,8.82
2022-09-29T00:58:13.676Z,8.76
2022-09-29T01:00:45.830Z,8.75
2022-09-29T01:03:22.778Z,8.76
2022-09-29T01:06:22.616Z,8.73
2022-09-29T01:09:03.628Z,8.68
2022-09-29T01:11:35.582Z,8.65
2022-09-29T01:14:10.270Z,8.60
2022-09-29T01:16:43.463Z,8.58
2022-09-29T01:19:28.419Z,8.56
2022-09-29T01:22:41.385Z,8.55
2022-09-29T01:26:09.393Z,8.54
2022-09-29T01:29:20.285Z,8.54
2022-09-29T01:32:07.535Z,8.50
2022-09-29T01:35:09.907Z,8.42
2022-09-29T01:37:50.673Z,8.37
2022-09-29T01:40:32.426Z,8.37
2022-09-29T01:43:37.226Z,8.35
2022-09-29T01:46:10.678Z,8.36
2022-09-29T01:48:50.935Z,8.37
2022-09-29T01:51:53.428Z,8.38
2022-09-29T01:54:48.174Z,8.34
2022-09-29T01:57:33.036Z,8.29
2022-09-29T02:00:12.795Z,8.21
2022-09-29T02:03:16.342Z,8.15
2022-09-29T02:06:02.313Z,8.13
2022-09-29T02:08:45.202Z,8.08
2022-09-29T02:11:17.914Z,8.10
2022-09-29T02:14:21.137Z,8.14
2022-09-29T02:17:01.095Z,8.14
2022-09-29T02:19:37.337Z,8.08
2022-09-29T02:22:09.435Z,8.10
2022-09-29T02:24:41.952Z,8.04
2022-09-29T02:27:14.038Z,8.03
2022-09-29T02:29:46.448Z,8.05
2022-09-29T02:32:20.093Z,8.06
2022-09-29T02:34:53.398Z,8.06
2022-09-29T02:37:40.064Z,8.01
2022-09-29T02:40:48.641Z,7.98
2022-09-29T02:43:23.351Z,7.98
2022-09-29T02:46:00.757Z,7.97
2022-09-29T02:49:10.522Z,8.03
2022-09-29T02:51:48.315Z,8.00
2022-09-29T02:54:38.076Z,8.01
2022-09-29T02:57:17.946Z,7.98
2022-09-29T03:00:09.704Z,7.88
2022-09-29T03:02:43.781Z,7.90
2022-09-29T03:05:20.298Z,7.92
2022-09-29T03:07:52.490Z,7.96
2022-09-29T03:10:29.277Z,7.90
2022-09-29T03:13:02.059Z,7.87
2022-09-29T03:15:33.963Z,7.87
2022-09-29T03:18:10.102Z,7.83
2022-09-29T03:20:42.323Z,7.84
2022-09-29T03:23:14.216Z,7.87
2022-09-29T03:25:46.113Z,7.81
2022-09-29T03:28:18.141Z,7.84
2022-09-29T03:30:50.080Z,7.91
2022-09-29T03:33:22.309Z,7.95
2022-09-29T03:35:54.230Z,7.90
2022-09-29T03:38:26.134Z,7.85
2022-09-29T03:40:58.137Z,7.80
2022-09-29T03:43:30.491Z,7.77
2022-09-29T03:46:02.509Z,7.66
2022-09-29T03:48:35.501Z,7.62
2022-09-29T03:51:07.780Z,7.61
2022-09-29T03:53:39.797Z,7.56
2022-09-29T03:56:11.835Z,7.56
2022-09-29T03:58:43.805Z,7.53
2022-09-29T04:01:15.785Z,7.55
2022-09-29T04:03:47.787Z,7.57
2022-09-29T04:06:19.664Z,7.53
2022-09-29T04:08:51.606Z,7.58
2022-09-29T04:11:23.485Z,7.62
2022-09-29T04:13:55.442Z,7.55
2022-09-29T04:16:27.384Z,7.58
2022-09-29T04:18:59.331Z,7.55
2022-09-29T04:21:31.255Z,7.61
2022-09-29T04:24:03.180Z,7.63
2022-09-29T04:26:35.149Z,7.59
2022-09-29T04:29:07.282Z,7.56
2022-09-29T04:31:39.196Z,7.54
2022-09-29T04:34:11.192Z,7.55
2022-09-29T04:36:43.094Z,7.59
2022-09-29T04:39:15.162Z,7.59
2022-09-29T04:41:47.180Z,7.62
2022-09-29T04:44:22.274Z,7.66
2022-09-29T04:46:54.266Z,7.68
2022-09-29T04:49:26.310Z,7.64
2022-09-29T04:51:58.217Z,7.58
2022-09-29T04:54:37.850Z,7.58
2022-09-29T04:57:10.761Z,7.59
2022-09-29T04:59:42.692Z,7.56
2022-09-29T05:02:14.948Z,7.52
2022-09-29T05:04:47.759Z,7.50
2022-09-29T05:07:19.728Z,7.51
2022-09-29T05:09:51.670Z,7.52
2022-09-29T05:12:23.678Z,7.54
2022-09-29T05:14:55.595Z,7.53
2022-09-29T05:17:27.488Z,7.52
2022-09-29T05:19:59.402Z,7.48
2022-09-29T05:22:31.917Z,7.49
2022-09-29T05:25:04.221Z,7.46
2022-09-29T05:27:37.674Z,7.43
2022-09-29T05:30:10.232Z,7.43
2022-09-29T05:32:44.246Z,7.44
2022-09-29T05:35:16.295Z,7.39
2022-09-29T05:37:48.281Z,7.44
2022-09-29T05:40:24.169Z,7.45
2022-09-29T05:42:58.507Z,7.41
2022-09-29T05:45:30.488Z,7.41
2022-09-29T05:48:02.422Z,7.37
2022-09-29T05:50:41.663Z,7.40
2022-09-29T05:53:13.879Z,7.45
2022-09-29T05:55:46.099Z,7.42
2022-09-29T05:58:18.798Z,7.41
2022-09-29T06:00:50.800Z,7.40
2022-09-29T06:03:22.719Z,7.41
2022-09-29T06:05:54.632Z,7.45
2022-09-29T06:08:26.551Z,7.43
2022-09-29T06:11:21.478Z,7.47
2022-09-29T06:13:54.915Z,7.51
2022-09-29T06:16:30.403Z,7.55
2022-09-29T06:19:03.612Z,7.65
2022-09-29T06:21:37.822Z,7.71
2022-09-29T06:24:09.778Z,7.70
2022-09-29T06:26:41.701Z,7.80
2022-09-29T06:29:13.734Z,7.86
2022-09-29T06:31:45.834Z,7.86
2022-09-29T06:34:17.924Z,7.90
2022-09-29T06:37:08.060Z,8.02
2022-09-29T06:39:40.028Z,8.16
2022-09-29T06:42:12.615Z,8.21
2022-09-29T06:44:44.501Z,8.17
2022-09-29T06:47:16.561Z,8.25
2022-09-29T06:49:58.811Z,8.32
2022-09-29T06:52:32.196Z,8.40
2022-09-29T06:55:04.592Z,8.49
2022-09-29T06:57:37.377Z,8.54
2022-09-29T07:00:10.696Z,8.67
2022-09-29T07:02:49.103Z,8.80
2022-09-29T07:05:21.156Z,8.93
2022-09-29T07:08:00.112Z,8.99
2022-09-29T07:10:33.171Z,9.04
2022-09-29T07:13:06.061Z,9.01
2022-09-29T07:15:38.183Z,9.06
2022-09-29T07:18:10.106Z,9.25
2022-09-29T07:20:42.035Z,9.42
2022-09-29T07:23:13.993Z,9.42
2022-09-29T07:25:52.146Z,9.63
2022-09-29T07:28:24.344Z,9.78
2022-09-29T07:31:14.728Z,9.91
2022-09-29T07:33:50.068Z,10.11
2022-09-29T07:36:22.042Z,10.05
2022-09-29T07:38:54.025Z,10.14
2022-09-29T07:41:25.936Z,10.33
2022-09-29T07:43:57.907Z,10.38
2022-09-29T07:46:29.965Z,10.48
2022-09-29T07:49:01.999Z,10.64
2022-09-29T07:51:33.887Z,10.77
2022-09-29T07:54:05.921Z,10.93
2022-09-29T07:56:37.926Z,10.98
2022-09-29T07:59:11.513Z,11.13
2022-09-29T08:01:43.513Z,11.45
2022-09-29T08:04:15.541Z,11.71
2022-09-29T08:06:47.741Z,11.80
2022-09-29T08:09:20.549Z,11.80
2022-09-29T08:12:03.981Z,11.83
2022-09-29T08:14:43.933Z,12.00
2022-09-29T08:17:16.243Z,12.17
2022-09-29T08:19:48.463Z,12.42
2022-09-29T08:22:20.434Z,12.45
2022-09-29T08:24:52.440Z,12.40
2022-09-29T08:27:24.393Z,12.46
2022-09-29T08:29:57.990Z,12.66
2022-09-29T08:32:29.904Z,12.76
2022-09-29T08:35:02.205Z,12.86
2022-09-29T08:37:35.158Z,12.79
2022-09-29T08:40:08.704Z,12.83
2022-09-29T08:43:04.991Z,12.83
2022-09-29T08:46:04.792Z,12.82
2022-09-29T08:48:53.881Z,12.77
2022-09-29T08:51:43.203Z,12.69
2022-09-29T08:54:40.906Z,12.65
2022-09-29T08:57:18.869Z,12.68
2022-09-29T08:59:58.270Z,12.79
2022-09-29T09:03:05.264Z,12.91
2022-09-29T09:06:33.968Z,13.08
2022-09-29T09:09:20.863Z,13.31
2022-09-29T09:11:58.803Z,13.55
2022-09-29T09:15:00.050Z,13.72
2022-09-29T09:18:13.637Z,13.76
2022-09-29T09:21:03.797Z,14.05
2022-09-29T09:24:00.767Z,14.34
2022-09-29T09:26:40.824Z,14.36
2022-09-29T09:29:36.602Z,14.45
2022-09-29T09:32:25.683Z,14.17
2022-09-29T09:35:25.402Z,14.28
2022-09-29T09:38:06.711Z,14.23
2022-09-29T09:40:47.470Z,14.32
2022-09-29T09:43:46.377Z,14.53
2022-09-29T09:46:25.475Z,14.64
2022-09-29T09:49:13.794Z,14.81
2022-09-29T09:51:56.909Z,14.83
2022-09-29T09:54:37.150Z,14.84
2022-09-29T09:57:33.755Z,14.91
2022-09-29T10:00:14.213Z,15.08
2022-09-29T10:02:52.581Z,15.02
2022-09-29T10:05:46.668Z,15.12
2022-09-29T10:08:29.685Z,15.51
2022-09-29T10:11:01.662Z,17.08
2022-09-29T10:13:33.807Z,18.47
2022-09-29T10:16:25.110Z,20.14
2022-09-29T10:18:57.117Z,21.07
2022-09-29T10:21:29.773Z,21.41
2022-09-29T10:24:02.777Z,21.36
2022-09-29T10:26:43.725Z,21.15
2022-09-29T10:29:36.755Z,20.51
2022-09-29T10:32:25.026Z,19.52
2022-09-29T10:35:19.209Z,18.57
2022-09-29T10:38:06.385Z,18.00
2022-09-29T10:41:03.439Z,18.19
2022-09-29T10:43:40.564Z,18.87
2022-09-29T10:46:48.606Z,19.99
2022-09-29T10:49:23.876Z,20.60
2022-09-29T10:52:14.377Z,20.14
2022-09-29T10:55:00.178Z,18.94
2022-09-29T10:57:34.353Z,18.46
2022-09-29T11:00:07.300Z,18.18
2022-09-29T11:02:41.959Z,17.71
2022-09-29T11:05:26.148Z,17.04
2022-09-29T11:07:58.138Z,17.12
2022-09-29T11:10:36.991Z,16.92
2022-09-29T11:13:24.229Z,16.71
2022-09-29T11:16:29.644Z,16.63
2022-09-29T11:19:10.358Z,16.98
2022-09-29T11:22:11.714Z,17.46
2022-09-29T11:24:58.070Z,17.87
2022-09-29T11:27:55.298Z,18.58
2022-09-29T11:31:03.284Z,19.16
2022-09-29T11:34:05.671Z,19.86
2022-09-29T11:37:07.267Z,20.51
2022-09-29T11:40:04.616Z,20.51
2022-09-29T11:42:58.930Z,19.19
2022-09-29T11:46:00.226Z,18.46
2022-09-29T11:49:20.380Z,17.64
2022-09-29T11:52:07.603Z,16.99
2022-09-29T11:55:08.042Z,16.71
2022-09-29T11:57:58.333Z,16.43
2022-09-29T12:00:45.190Z,16.23
2022-09-29T12:03:50.523Z,16.28
2022-09-29T12:06:59.933Z,16.56
2022-09-29T12:10:03.137Z,16.80
2022-09-29T12:12:56.391Z,17.10
2022-09-29T12:15:56.480Z,17.60
2022-09-29T12:18:45.506Z,18.02
2022-09-29T12:21:41.917Z,17.82
2022-09-29T12:24:54.827Z,17.80
2022-09-29T12:27:38.171Z,17.59
2022-09-29T12:30:35.216Z,17.41
2022-09-29T12:33:39.126Z,17.30
2022-09-29T12:37:02.385Z,17.09
2022-09-29T12:40:00.460Z,17.03
2022-09-29T12:43:03.059Z,16.92
2022-09-29T12:45:43.373Z,16.69
2022-09-29T12:48:27.773Z,16.74
2022-09-29T12:51:18.031Z,16.87
2022-09-29T12:54:17.693Z,17.07
2022-09-29T12:57:04.156Z,17.29
2022-09-29T13:00:06.008Z,17.33
2022-09-29T13:02:56.825Z,17.31
2022-09-29T13:05:58.665Z,17.26
2022-09-29T13:09:07.968Z,17.23
2022-09-29T13:12:36.565Z,17.03
2022-09-29T13:15:47.879Z,16.95
2022-09-29T13:18:34.991Z,16.80
2022-09-29T13:21:40.881Z,16.91
2022-09-29T13:24:52.410Z,17.03
2022-09-29T13:27:42.653Z,17.16
2022-09-29T13:30:19.521Z,17.23
2022-09-29T13:33:02.420Z,17.24
2022-09-29T13:35:45.468Z,17.19
2022-09-29T13:38:24.857Z,17.27
2022-09-29T13:41:37.508Z,17.23
2022-09-29T13:44:18.437Z,17.28
2022-09-29T13:46:52.384Z,17.34
2022-09-29T13:49:33.253Z,17.29
2022-09-29T13:52:11.898Z,17.11
2022-09-29T13:54:44.406Z,16.95
2022-09-29T13:57:16.716Z,17.00
2022-09-29T13:59:54.791Z,16.94
2022-09-29T14:02:52.278Z,16.83
2022-09-29T14:05:24.407Z,16.85
2022-09-29T14:07:57.380Z,16.87
2022-09-29T14:10:49.224Z,16.70
2022-09-29T14:13:29.245Z,16.78
2022-09-29T14:16:22.819Z,16.90
2022-09-29T14:19:24.936Z,16.93
2022-09-29T14:22:01.115Z,17.05
2022-09-29T14:24:45.641Z,16.92
2022-09-29T14:27:38.915Z,16.89
2022-09-29T14:30:13.442Z,16.86
2022-09-29T14:33:23.627Z,16.77
2022-09-29T14:35:55.452Z,16.72
2022-09-29T14:38:31.682Z,16.70
2022-09-29T14:41:19.504Z,16.71
2022-09-29T14:44:01.053Z,16.75
2022-09-29T14:47:16.360Z,16.76
2022-09-29T14:50:40.019Z,16.65
2022-09-29T14:53:25.135Z,16.54
2022-09-29T14:56:21.644Z,16.44
2022-09-29T14:59:11.011Z,16.43
2022-09-29T15:02:19.820Z,16.36
2022-09-29T15:04:51.806Z,16.33
2022-09-29T15:07:27.460Z,16.14
2022-09-29T15:10:00.074Z,16.13
2022-09-29T15:12:33.447Z,16.07
2022-09-29T15:15:06.501Z,16.10
2022-09-29T15:17:55.596Z,16.06
2022-09-29T15:20:38.156Z,16.14
2022-09-29T15:24:04.699Z,16.12
2022-09-29T15:26:38.618Z,16.10
2022-09-29T15:29:17.932Z,16.07
2022-09-29T15:31:50.577Z,16.12
2022-09-29T15:34:25.840Z,16.07
2022-09-29T15:36:58.770Z,16.10
2022-09-29T15:39:33.661Z,15.99
2022-09-29T15:42:24.034Z,15.84
2022-09-29T15:45:00.967Z,15.75
2022-09-29T15:47:40.650Z,15.75
2022-09-29T15:50:25.309Z,15.77
2022-09-29T15:52:57.264Z,15.72
2022-09-29T15:55:31.726Z,15.68
2022-09-29T15:58:26.402Z,15.66
2022-09-29T16:01:06.600Z,15.68
2022-09-29T16:03:57.723Z,15.58
2022-09-29T16:06:33.868Z,15.47
2022-09-29T16:09:18.332Z,15.46
2022-09-29T16:11:50.373Z,15.28
2022-09-29T16:14:24.218Z,15.17
2022-09-29T16:16:56.722Z,15.11
2022-09-29T16:19:32.193Z,14.96
2022-09-29T16:22:09.146Z,14.91
2022-09-29T16:25:11.668Z,14.74
2022-09-29T16:27:57.763Z,14.73
2022-09-29T16:30:35.988Z,14.53
2022-09-29T16:33:22.500Z,14.52
2022-09-29T16:35:54.502Z,14.42
2022-09-29T16:38:44.137Z,14.38
2022-09-29T16:41:35.829Z,14.28
2022-09-29T16:44:33.054Z,14.23
2022-09-29T16:47:16.857Z,14.23
2022-09-29T16:50:12.439Z,14.21
2022-09-29T16:52:51.010Z,14.18
2022-09-29T16:55:24.681Z,14.14
2022-09-29T16:58:03.214Z,14.11
2022-09-29T17:00:36.660Z,13.99
2022-09-29T17:03:10.321Z,13.99
2022-09-29T17:05:47.843Z,13.99
2022-09-29T17:08:25.843Z,13.99
2022-09-29T17:10:58.082Z,14.00
2022-09-29T17:13:35.417Z,13.93
2022-09-29T17:16:11.101Z,13.90
2022-09-29T17:18:43.174Z,13.89
2022-09-29T17:21:15.349Z,13.83
2022-09-29T17:23:47.252Z,13.83
2022-09-29T17:26:43.631Z,13.78
2022-09-29T17:29:15.663Z,13.74
2022-09-29T17:31:47.636Z,13.73
2022-09-29T17:34:25.623Z,13.73
2022-09-29T17:37:00.291Z,13.69
2022-09-29T17:39:32.379Z,13.64
2022-09-29T17:42:04.582Z,13.62
2022-09-29T17:44:39.291Z,13.56
2022-09-29T17:47:27.733Z,13.51
2022-09-29T17:50:38.245Z,13.45
2022-09-29T17:53:16.759Z,13.45
2022-09-29T17:55:51.220Z,13.38
2022-09-29T17:58:24.070Z,13.32
2022-09-29T18:00:59.695Z,13.31
2022-09-29T18:03:34.508Z,13.29
2022-09-29T18:06:08.615Z,13.25
2022-09-29T18:08:40.546Z,13.12
2022-09-29T18:11:12.458Z,13.12
2022-09-29T18:13:45.304Z,13.09
2022-09-29T18:16:22.052Z,13.06
2022-09-29T18:18:58.795Z,13.06
2022-09-29T18:21:33.057Z,13.02
2022-09-29T18:24:05.383Z,12.87
2022-09-29T18:26:37.475Z,12.93
2022-09-29T18:29:16.169Z,12.99
2022-09-29T18:31:48.330Z,13.01
2022-09-29T18:34:22.417Z,13.02
2022-09-29T18:36:54.501Z,13.03
2022-09-29T18:39:26.554Z,13.00
2022-09-29T18:41:58.516Z,13.01
2022-09-29T18:44:33.569Z,12.99
2022-09-29T18:47:05.477Z,13.01
2022-09-29T18:49:37.485Z,13.08
2022-09-29T18:52:10.306Z,13.08
2022-09-29T18:54:42.221Z,13.08
2022-09-29T18:57:18.595Z,13.05
2022-09-29T18:59:52.213Z,13.01
2022-09-29T19:02:26.229Z,12.98
2022-09-29T19:04:58.426Z,12.99
2022-09-29T19:07:31.250Z,12.97
2022-09-29T19:10:03.624Z,12.95
2022-09-29T19:12:35.838Z,12.95
2022-09-29T19:15:08.375Z,12.98
2022-09-29T19:17:40.451Z,13.00
2022-09-29T19:20:14.437Z,13.00
2022-09-29T19:22:47.210Z,13.01
2022-09-29T19:25:26.148Z,13.05
2022-09-29T19:27:59.087Z,13.05
2022-09-29T19:30:38.366Z,13.07
2022-09-29T19:33:18.507Z,13.07
2022-09-29T19:35:57.419Z,13.09
2022-09-29T19:38:29.553Z,13.07
2022-09-29T19:41:02.209Z,13.07
2022-09-29T19:43:34.138Z,13.07
2022-09-29T19:46:11.776Z,13.05
2022-09-29T19:48:44.101Z,13.07
2022-09-29T19:51:36.725Z,13.06
2022-09-29T19:54:14.364Z,13.00
2022-09-29T19:57:17.791Z,13.01
2022-09-29T19:59:49.748Z,13.03
2022-09-29T20:02:21.790Z,13.02
2022-09-29T20:04:53.762Z,13.05
2022-09-29T20:07:25.805Z,13.04
2022-09-29T20:09:57.720Z,12.99
2022-09-29T20:12:30.372Z,12.97
2022-09-29T20:15:02.327Z,12.96
2022-09-29T20:17:35.204Z,12.93
2022-09-29T20:20:10.127Z,12.87
2022-09-29T20:22:42.130Z,12.86
2022-09-29T20:25:14.080Z,12.81
2022-09-29T20:27:46.092Z,12.81
2022-09-29T20:30:20.811Z,12.79
2022-09-29T20:32:52.877Z,12.74
2022-09-29T20:35:24.836Z,12.71
2022-09-29T20:37:56.856Z,12.64
2022-09-29T20:40:28.892Z,12.61
2022-09-29T20:43:00.847Z,12.55
2022-09-29T20:45:32.774Z,12.51
2022-09-29T20:48:04.726Z,12.47
2022-09-29T20:50:37.673Z,12.47
2022-09-29T20:53:09.724Z,12.42
2022-09-29T20:55:41.682Z,12.41
2022-09-29T20:58:15.664Z,12.39
2022-09-29T21:00:47.570Z,12.34
2022-09-29T21:03:19.866Z,12.35
2022-09-29T21:05:51.890Z,12.35
2022-09-29T21:08:30.037Z,12.32
2022-09-29T21:11:04.723Z,12.29
2022-09-29T21:13:37.459Z,12.27
2022-09-29T21:16:09.444Z,12.24
2022-09-29T21:18:41.412Z,12.21
2022-09-29T21:21:13.491Z,12.25
2022-09-29T21:23:46.456Z,12.21
2022-09-29T21:26:20.950Z,12.12
2022-09-29T21:28:56.466Z,12.07
2022-09-29T21:31:34.584Z,12.03
2022-09-29T21:34:08.214Z,12.05
2022-09-29T21:36:40.439Z,12.04
2022-09-29T21:39:14.661Z,12.09
2022-09-29T21:41:46.987Z,12.10
2022-09-29T21:44:24.450Z,12.09
2022-09-29T21:46:56.658Z,12.05
2022-09-29T21:49:28.670Z,12.02
2022-09-29T21:52:02.167Z,12.09
2022-09-29T21:54:37.756Z,12.10
2022-09-29T21:57:10.145Z,12.14
2022-09-29T21:59:42.081Z,12.15
2022-09-29T22:02:14.097Z,12.07
2022-09-29T22:04:46.154Z,12.03
2022-09-29T22:07:18.083Z,12.03
2022-09-29T22:09:50.136Z,12.01
2022-09-29T22:12:22.986Z,12.05
2022-09-29T22:14:54.910Z,12.10
2022-09-29T22:17:26.930Z,12.14
2022-09-29T22:19:58.866Z,12.19
2022-09-29T22:22:30.802Z,12.20
2022-09-29T22:25:04.815Z,12.20
2022-09-29T22:27:36.760Z,12.24
2022-09-29T22:30:11.332Z,12.25
2022-09-29T22:32:43.362Z,12.22
2022-09-29T22:35:16.175Z,12.23
2022-09-29T22:37:48.135Z,12.18
2022-09-29T22:40:20.518Z,12.15
2022-09-29T22:42:52.533Z,12.17
2022-09-29T22:45:24.467Z,12.21
2022-09-29T22:47:57.578Z,12.10
2022-09-29T22:50:33.619Z,12.14
2022-09-29T22:53:05.825Z,12.16
2022-09-29T22:55:40.034Z,12.19
2022-09-29T22:58:12.913Z,12.17
2022-09-29T23:00:44.841Z,12.14
2022-09-29T23:03:16.957Z,12.14
2022-09-29T23:05:48.979Z,12.10
2022-09-29T23:08:20.999Z,12.06
2022-09-29T23:10:56.087Z,12.07
2022-09-29T23:13:28.163Z,12.13
2022-09-29T23:16:12.365Z,12.13
2022-09-29T23:18:47.366Z,12.09
2022-09-29T23:21:19.771Z,12.09
2022-09-29T23:23:58.010Z,12.07
2022-09-29T23:26:31.383Z,12.03
2022-09-29T23:29:03.866Z,11.95
2022-09-29T23:31:35.876Z,11.89
2022-09-29T23:34:09.784Z,11.87
2022-09-29T23:36:41.849Z,11.87
2022-09-29T23:39:21.363Z,11.80
2022-09-29T23:41:54.329Z,11.81
2022-09-29T23:44:30.231Z,11.81
2022-09-29T23:47:02.957Z,11.81
2022-09-29T23:49:34.934Z,11.75
2022-09-29T23:52:06.900Z,11.74
2022-09-29T23:54:38.851Z,11.71
2022-09-29T23:57:10.825Z,11.66
2022-09-29T23:59:42.726Z,11.60
